ADDS TAF Data INFO
IDs: Format: Raw Decoded Include METARs

Data at: 2122 UTC 21 Nov 2017

KDHT 212053Z AUTO 01027G33KT 10SM CLR 15/M02 A3025 RMK AO2 PK WND 01036/1957 SLP221 T01501017 53013

KDHT 211728Z 2118/2218 02025G35KT P6SM BKN200
  FM220100 VRB05KT P6SM SCT250
  FM221700 23010KT P6SM FEW250